sensor_id;sensor_type;location;lat;lon;timestamp;P1;durP1;ratioP1;P2;durP2;ratioP2
52764;SDS011;38650;44.536;18.664;2024-02-28T00:00:27;41.15;;;33.10;;
52764;SDS011;38650;44.536;18.664;2024-02-28T00:02:53;45.08;;;35.38;;
52764;SDS011;38650;44.536;18.664;2024-02-28T00:05:18;52.38;;;37.38;;
52764;SDS011;38650;44.536;18.664;2024-02-28T00:07:44;43.40;;;34.45;;
52764;SDS011;38650;44.536;18.664;2024-02-28T00:10:11;43.90;;;34.13;;
52764;SDS011;38650;44.536;18.664;2024-02-28T00:12:36;58.25;;;42.15;;
52764;SDS011;38650;44.536;18.664;2024-02-28T00:15:04;47.80;;;37.75;;
52764;SDS011;38650;44.536;18.664;2024-02-28T00:17:30;68.10;;;47.45;;
52764;SDS011;38650;44.536;18.664;2024-02-28T00:19:56;57.67;;;44.35;;
52764;SDS011;38650;44.536;18.664;2024-02-28T00:22:22;43.42;;;34.65;;
52764;SDS011;38650;44.536;18.664;2024-02-28T00:24:47;37.85;;;30.80;;
52764;SDS011;38650;44.536;18.664;2024-02-28T00:27:13;34.90;;;28.35;;
52764;SDS011;38650;44.536;18.664;2024-02-28T00:29:39;30.38;;;25.30;;
52764;SDS011;38650;44.536;18.664;2024-02-28T00:32:05;27.67;;;22.27;;
52764;SDS011;38650;44.536;18.664;2024-02-28T00:34:31;24.70;;;20.90;;
52764;SDS011;38650;44.536;18.664;2024-02-28T00:36:56;24.08;;;20.35;;
52764;SDS011;38650;44.536;18.664;2024-02-28T00:39:22;21.77;;;17.88;;
52764;SDS011;38650;44.536;18.664;2024-02-28T00:41:48;19.60;;;16.92;;
52764;SDS011;38650;44.536;18.664;2024-02-28T00:44:13;18.23;;;15.27;;
52764;SDS011;38650;44.536;18.664;2024-02-28T00:46:39;17.25;;;15.45;;
52764;SDS011;38650;44.536;18.664;2024-02-28T00:49:05;24.58;;;18.45;;
52764;SDS011;38650;44.536;18.664;2024-02-28T00:51:30;28.02;;;21.40;;
52764;SDS011;38650;44.536;18.664;2024-02-28T00:53:56;36.85;;;28.75;;
52764;SDS011;38650;44.536;18.664;2024-02-28T00:56:22;50.10;;;37.72;;
52764;SDS011;38650;44.536;18.664;2024-02-28T00:58:49;45.35;;;34.22;;
52764;SDS011;38650;44.536;18.664;2024-02-28T01:01:15;44.28;;;33.92;;
52764;SDS011;38650;44.536;18.664;2024-02-28T01:03:40;53.47;;;38.17;;
52764;SDS011;38650;44.536;18.664;2024-02-28T01:06:06;45.30;;;35.30;;
52764;SDS011;38650;44.536;18.664;2024-02-28T01:08:32;43.75;;;33.80;;
52764;SDS011;38650;44.536;18.664;2024-02-28T01:10:57;39.60;;;30.55;;
52764;SDS011;38650;44.536;18.664;2024-02-28T01:13:24;36.78;;;30.52;;
52764;SDS011;38650;44.536;18.664;2024-02-28T01:15:51;34.80;;;28.77;;
52764;SDS011;38650;44.536;18.664;2024-02-28T01:18:16;27.45;;;23.15;;
52764;SDS011;38650;44.536;18.664;2024-02-28T01:20:42;26.65;;;21.98;;
52764;SDS011;38650;44.536;18.664;2024-02-28T01:23:08;22.92;;;19.65;;
52764;SDS011;38650;44.536;18.664;2024-02-28T01:25:33;21.17;;;17.33;;
52764;SDS011;38650;44.536;18.664;2024-02-28T01:27:59;21.60;;;16.30;;
52764;SDS011;38650;44.536;18.664;2024-02-28T01:30:25;19.08;;;15.15;;
52764;SDS011;38650;44.536;18.664;2024-02-28T01:32:51;17.55;;;14.57;;
52764;SDS011;38650;44.536;18.664;2024-02-28T01:35:16;16.80;;;13.50;;
52764;SDS011;38650;44.536;18.664;2024-02-28T01:37:42;14.40;;;11.80;;
52764;SDS011;38650;44.536;18.664;2024-02-28T01:40:08;14.77;;;12.05;;
52764;SDS011;38650;44.536;18.664;2024-02-28T01:42:35;19.40;;;15.30;;
52764;SDS011;38650;44.536;18.664;2024-02-28T01:45:00;24.02;;;21.20;;
52764;SDS011;38650;44.536;18.664;2024-02-28T01:47:26;32.60;;;26.17;;
52764;SDS011;38650;44.536;18.664;2024-02-28T01:49:52;30.30;;;24.40;;
52764;SDS011;38650;44.536;18.664;2024-02-28T01:52:19;33.95;;;28.05;;
52764;SDS011;38650;44.536;18.664;2024-02-28T01:54:46;39.90;;;32.47;;
52764;SDS011;38650;44.536;18.664;2024-02-28T01:57:11;38.83;;;29.05;;
52764;SDS011;38650;44.536;18.664;2024-02-28T01:59:38;31.40;;;26.73;;
52764;SDS011;38650;44.536;18.664;2024-02-28T02:02:04;29.75;;;24.75;;
52764;SDS011;38650;44.536;18.664;2024-02-28T02:04:30;25.23;;;22.13;;
52764;SDS011;38650;44.536;18.664;2024-02-28T02:06:56;21.75;;;19.17;;
52764;SDS011;38650;44.536;18.664;2024-02-28T02:09:24;19.75;;;16.42;;
52764;SDS011;38650;44.536;18.664;2024-02-28T02:11:51;15.45;;;13.38;;
52764;SDS011;38650;44.536;18.664;2024-02-28T02:14:17;14.05;;;12.48;;
52764;SDS011;38650;44.536;18.664;2024-02-28T02:16:42;15.80;;;13.27;;
52764;SDS011;38650;44.536;18.664;2024-02-28T02:19:08;16.63;;;14.15;;
52764;SDS011;38650;44.536;18.664;2024-02-28T02:21:37;14.40;;;12.60;;
52764;SDS011;38650;44.536;18.664;2024-02-28T02:26:34;11.20;;;9.35;;
52764;SDS011;38650;44.536;18.664;2024-02-28T02:29:00;10.10;;;9.10;;
52764;SDS011;38650;44.536;18.664;2024-02-28T02:31:25;11.68;;;10.38;;
52764;SDS011;38650;44.536;18.664;2024-02-28T02:33:51;16.95;;;14.20;;
52764;SDS011;38650;44.536;18.664;2024-02-28T02:36:16;17.30;;;13.60;;
52764;SDS011;38650;44.536;18.664;2024-02-28T02:38:42;21.70;;;17.98;;
52764;SDS011;38650;44.536;18.664;2024-02-28T02:41:08;18.83;;;16.75;;
52764;SDS011;38650;44.536;18.664;2024-02-28T02:43:34;19.63;;;16.40;;
52764;SDS011;38650;44.536;18.664;2024-02-28T02:45:59;22.85;;;19.20;;
52764;SDS011;38650;44.536;18.664;2024-02-28T02:48:25;24.02;;;17.90;;
52764;SDS011;38650;44.536;18.664;2024-02-28T02:50:51;22.45;;;18.98;;
52764;SDS011;38650;44.536;18.664;2024-02-28T02:53:17;17.15;;;15.35;;
52764;SDS011;38650;44.536;18.664;2024-02-28T02:55:42;17.85;;;15.50;;
52764;SDS011;38650;44.536;18.664;2024-02-28T02:58:08;16.33;;;14.50;;
52764;SDS011;38650;44.536;18.664;2024-02-28T03:00:34;14.35;;;12.85;;
52764;SDS011;38650;44.536;18.664;2024-02-28T03:02:59;13.00;;;11.65;;
52764;SDS011;38650;44.536;18.664;2024-02-28T03:05:25;10.82;;;9.55;;
52764;SDS011;38650;44.536;18.664;2024-02-28T03:07:51;10.23;;;9.05;;
52764;SDS011;38650;44.536;18.664;2024-02-28T03:10:16;10.95;;;9.57;;
52764;SDS011;38650;44.536;18.664;2024-02-28T03:12:42;13.73;;;12.30;;
52764;SDS011;38650;44.536;18.664;2024-02-28T03:15:08;12.60;;;11.30;;
52764;SDS011;38650;44.536;18.664;2024-02-28T03:17:34;14.15;;;12.13;;
52764;SDS011;38650;44.536;18.664;2024-02-28T03:19:59;11.50;;;10.30;;
52764;SDS011;38650;44.536;18.664;2024-02-28T03:22:25;10.63;;;9.52;;
52764;SDS011;38650;44.536;18.664;2024-02-28T03:24:50;13.93;;;11.55;;
52764;SDS011;38650;44.536;18.664;2024-02-28T03:27:16;13.57;;;11.93;;
52764;SDS011;38650;44.536;18.664;2024-02-28T03:29:42;18.92;;;14.45;;
52764;SDS011;38650;44.536;18.664;2024-02-28T03:32:08;16.90;;;15.15;;
52764;SDS011;38650;44.536;18.664;2024-02-28T03:34:33;34.33;;;26.77;;
52764;SDS011;38650;44.536;18.664;2024-02-28T03:36:59;30.17;;;22.50;;
52764;SDS011;38650;44.536;18.664;2024-02-28T03:39:25;25.95;;;21.67;;
52764;SDS011;38650;44.536;18.664;2024-02-28T03:41:50;25.33;;;19.23;;
52764;SDS011;38650;44.536;18.664;2024-02-28T03:44:16;24.10;;;19.48;;
52764;SDS011;38650;44.536;18.664;2024-02-28T03:46:42;21.13;;;16.83;;
52764;SDS011;38650;44.536;18.664;2024-02-28T03:49:07;23.65;;;20.83;;
52764;SDS011;38650;44.536;18.664;2024-02-28T03:51:38;24.85;;;20.17;;
52764;SDS011;38650;44.536;18.664;2024-02-28T03:54:05;23.00;;;18.52;;
52764;SDS011;38650;44.536;18.664;2024-02-28T03:56:31;19.63;;;17.10;;
52764;SDS011;38650;44.536;18.664;2024-02-28T03:58:57;19.77;;;16.10;;
52764;SDS011;38650;44.536;18.664;2024-02-28T04:01:22;19.83;;;16.70;;
52764;SDS011;38650;44.536;18.664;2024-02-28T04:03:48;23.30;;;19.58;;
52764;SDS011;38650;44.536;18.664;2024-02-28T04:06:14;23.08;;;18.70;;
52764;SDS011;38650;44.536;18.664;2024-02-28T04:08:42;29.85;;;23.55;;
52764;SDS011;38650;44.536;18.664;2024-02-28T04:11:08;30.67;;;25.27;;
52764;SDS011;38650;44.536;18.664;2024-02-28T04:13:34;23.67;;;20.48;;
52764;SDS011;38650;44.536;18.664;2024-02-28T04:16:01;25.65;;;22.75;;
52764;SDS011;38650;44.536;18.664;2024-02-28T04:18:28;25.42;;;20.90;;
52764;SDS011;38650;44.536;18.664;2024-02-28T04:20:54;28.52;;;23.83;;
52764;SDS011;38650;44.536;18.664;2024-02-28T04:23:20;29.42;;;24.38;;
52764;SDS011;38650;44.536;18.664;2024-02-28T04:25:46;34.28;;;28.67;;
52764;SDS011;38650;44.536;18.664;2024-02-28T04:28:11;38.40;;;32.40;;
52764;SDS011;38650;44.536;18.664;2024-02-28T04:30:37;74.35;;;55.90;;
52764;SDS011;38650;44.536;18.664;2024-02-28T04:33:03;71.97;;;52.75;;
52764;SDS011;38650;44.536;18.664;2024-02-28T04:35:29;63.55;;;48.88;;
52764;SDS011;38650;44.536;18.664;2024-02-28T04:37:54;63.85;;;48.10;;
52764;SDS011;38650;44.536;18.664;2024-02-28T04:40:20;67.43;;;48.65;;
52764;SDS011;38650;44.536;18.664;2024-02-28T04:42:45;86.70;;;60.95;;
52764;SDS011;38650;44.536;18.664;2024-02-28T04:45:11;83.65;;;59.40;;
52764;SDS011;38650;44.536;18.664;2024-02-28T04:47:37;76.20;;;54.53;;
52764;SDS011;38650;44.536;18.664;2024-02-28T04:50:03;68.35;;;51.17;;
52764;SDS011;38650;44.536;18.664;2024-02-28T04:52:31;72.32;;;52.35;;
52764;SDS011;38650;44.536;18.664;2024-02-28T04:54:57;45.55;;;37.08;;
52764;SDS011;38650;44.536;18.664;2024-02-28T04:57:22;45.10;;;33.90;;
52764;SDS011;38650;44.536;18.664;2024-02-28T04:59:48;118.15;;;76.65;;
52764;SDS011;38650;44.536;18.664;2024-02-28T05:02:14;139.55;;;91.25;;
52764;SDS011;38650;44.536;18.664;2024-02-28T05:04:40;152.98;;;103.68;;
52764;SDS011;38650;44.536;18.664;2024-02-28T05:07:05;131.30;;;90.47;;
52764;SDS011;38650;44.536;18.664;2024-02-28T05:09:32;108.03;;;74.82;;
52764;SDS011;38650;44.536;18.664;2024-02-28T05:11:58;114.10;;;80.28;;
52764;SDS011;38650;44.536;18.664;2024-02-28T05:14:24;106.63;;;73.70;;
52764;SDS011;38650;44.536;18.664;2024-02-28T05:16:50;109.65;;;71.97;;
52764;SDS011;38650;44.536;18.664;2024-02-28T05:19:15;119.95;;;82.78;;
52764;SDS011;38650;44.536;18.664;2024-02-28T05:21:44;112.65;;;77.03;;
52764;SDS011;38650;44.536;18.664;2024-02-28T05:24:10;105.32;;;74.15;;
52764;SDS011;38650;44.536;18.664;2024-02-28T05:26:36;103.45;;;73.45;;
52764;SDS011;38650;44.536;18.664;2024-02-28T05:29:02;104.30;;;72.10;;
52764;SDS011;38650;44.536;18.664;2024-02-28T05:31:29;87.38;;;63.33;;
52764;SDS011;38650;44.536;18.664;2024-02-28T05:33:57;76.03;;;54.97;;
52764;SDS011;38650;44.536;18.664;2024-02-28T05:36:24;72.70;;;52.25;;
52764;SDS011;38650;44.536;18.664;2024-02-28T05:38:54;70.18;;;51.33;;
52764;SDS011;38650;44.536;18.664;2024-02-28T05:41:21;87.60;;;60.95;;
52764;SDS011;38650;44.536;18.664;2024-02-28T05:43:47;101.38;;;74.18;;
52764;SDS011;38650;44.536;18.664;2024-02-28T05:46:18;81.45;;;60.72;;
52764;SDS011;38650;44.536;18.664;2024-02-28T05:48:44;81.45;;;59.70;;
52764;SDS011;38650;44.536;18.664;2024-02-28T05:51:10;62.17;;;49.47;;
52764;SDS011;38650;44.536;18.664;2024-02-28T05:53:37;48.08;;;38.20;;
52764;SDS011;38650;44.536;18.664;2024-02-28T05:56:03;38.08;;;30.17;;
52764;SDS011;38650;44.536;18.664;2024-02-28T05:58:30;42.67;;;31.77;;
52764;SDS011;38650;44.536;18.664;2024-02-28T06:00:56;54.67;;;43.22;;
52764;SDS011;38650;44.536;18.664;2024-02-28T06:03:22;44.08;;;36.22;;
52764;SDS011;38650;44.536;18.664;2024-02-28T06:05:48;41.65;;;35.28;;
52764;SDS011;38650;44.536;18.664;2024-02-28T06:08:13;53.97;;;41.33;;
52764;SDS011;38650;44.536;18.664;2024-02-28T06:10:40;72.47;;;57.05;;
52764;SDS011;38650;44.536;18.664;2024-02-28T06:13:07;55.47;;;46.58;;
52764;SDS011;38650;44.536;18.664;2024-02-28T06:15:33;52.72;;;43.28;;
52764;SDS011;38650;44.536;18.664;2024-02-28T06:17:59;50.60;;;41.47;;
52764;SDS011;38650;44.536;18.664;2024-02-28T06:20:27;38.85;;;33.78;;
52764;SDS011;38650;44.536;18.664;2024-02-28T06:22:53;38.22;;;31.27;;
52764;SDS011;38650;44.536;18.664;2024-02-28T06:25:19;51.83;;;41.05;;
52764;SDS011;38650;44.536;18.664;2024-02-28T06:27:47;68.65;;;50.05;;
52764;SDS011;38650;44.536;18.664;2024-02-28T06:30:13;53.47;;;43.65;;
52764;SDS011;38650;44.536;18.664;2024-02-28T06:32:39;52.00;;;40.15;;
52764;SDS011;38650;44.536;18.664;2024-02-28T06:35:06;51.65;;;40.38;;
52764;SDS011;38650;44.536;18.664;2024-02-28T06:37:32;65.97;;;48.03;;
52764;SDS011;38650;44.536;18.664;2024-02-28T06:39:58;56.63;;;42.30;;
52764;SDS011;38650;44.536;18.664;2024-02-28T06:42:24;54.20;;;43.38;;
52764;SDS011;38650;44.536;18.664;2024-02-28T06:44:50;45.35;;;36.95;;
52764;SDS011;38650;44.536;18.664;2024-02-28T06:47:16;40.25;;;32.25;;
52764;SDS011;38650;44.536;18.664;2024-02-28T06:49:41;33.03;;;27.08;;
52764;SDS011;38650;44.536;18.664;2024-02-28T06:52:07;27.73;;;23.33;;
52764;SDS011;38650;44.536;18.664;2024-02-28T06:54:33;36.42;;;28.55;;
52764;SDS011;38650;44.536;18.664;2024-02-28T06:56:58;54.85;;;42.40;;
52764;SDS011;38650;44.536;18.664;2024-02-28T06:59:24;44.22;;;36.75;;
52764;SDS011;38650;44.536;18.664;2024-02-28T07:01:50;41.15;;;33.70;;
52764;SDS011;38650;44.536;18.664;2024-02-28T07:04:15;37.17;;;31.08;;
52764;SDS011;38650;44.536;18.664;2024-02-28T07:06:42;33.35;;;28.33;;
52764;SDS011;38650;44.536;18.664;2024-02-28T07:09:08;32.85;;;27.30;;
52764;SDS011;38650;44.536;18.664;2024-02-28T07:11:34;31.88;;;27.20;;
52764;SDS011;38650;44.536;18.664;2024-02-28T07:14:00;31.35;;;24.95;;
52764;SDS011;38650;44.536;18.664;2024-02-28T07:16:31;28.17;;;24.30;;
52764;SDS011;38650;44.536;18.664;2024-02-28T07:18:59;24.45;;;21.50;;
52764;SDS011;38650;44.536;18.664;2024-02-28T07:21:28;31.73;;;25.40;;
52764;SDS011;38650;44.536;18.664;2024-02-28T07:23:55;24.25;;;21.65;;
52764;SDS011;38650;44.536;18.664;2024-02-28T07:26:21;23.52;;;20.95;;
52764;SDS011;38650;44.536;18.664;2024-02-28T07:28:46;27.50;;;21.40;;
52764;SDS011;38650;44.536;18.664;2024-02-28T07:31:17;25.17;;;20.30;;
52764;SDS011;38650;44.536;18.664;2024-02-28T07:33:43;24.40;;;19.88;;
52764;SDS011;38650;44.536;18.664;2024-02-28T07:36:09;24.27;;;20.63;;
52764;SDS011;38650;44.536;18.664;2024-02-28T07:38:36;22.05;;;19.48;;
52764;SDS011;38650;44.536;18.664;2024-02-28T07:41:02;18.98;;;16.83;;
52764;SDS011;38650;44.536;18.664;2024-02-28T07:43:28;23.13;;;19.33;;
52764;SDS011;38650;44.536;18.664;2024-02-28T07:45:57;19.75;;;17.50;;
52764;SDS011;38650;44.536;18.664;2024-02-28T07:48:26;19.50;;;17.50;;
52764;SDS011;38650;44.536;18.664;2024-02-28T07:50:51;17.83;;;15.95;;
52764;SDS011;38650;44.536;18.664;2024-02-28T07:53:17;18.92;;;16.52;;
52764;SDS011;38650;44.536;18.664;2024-02-28T07:55:43;20.25;;;16.77;;
52764;SDS011;38650;44.536;18.664;2024-02-28T07:58:10;17.27;;;15.48;;
52764;SDS011;38650;44.536;18.664;2024-02-28T08:00:35;25.50;;;20.80;;
52764;SDS011;38650;44.536;18.664;2024-02-28T08:03:01;21.48;;;19.20;;
52764;SDS011;38650;44.536;18.664;2024-02-28T08:05:27;19.05;;;17.05;;
52764;SDS011;38650;44.536;18.664;2024-02-28T08:07:53;21.55;;;18.17;;
52764;SDS011;38650;44.536;18.664;2024-02-28T08:10:19;19.90;;;17.80;;
52764;SDS011;38650;44.536;18.664;2024-02-28T08:12:45;15.93;;;14.30;;
52764;SDS011;38650;44.536;18.664;2024-02-28T08:15:10;14.77;;;13.15;;
52764;SDS011;38650;44.536;18.664;2024-02-28T08:17:36;13.00;;;11.80;;
52764;SDS011;38650;44.536;18.664;2024-02-28T08:20:02;12.18;;;10.95;;
52764;SDS011;38650;44.536;18.664;2024-02-28T08:22:33;11.45;;;10.45;;
52764;SDS011;38650;44.536;18.664;2024-02-28T08:24:59;13.48;;;11.85;;
52764;SDS011;38650;44.536;18.664;2024-02-28T08:27:25;11.15;;;9.85;;
52764;SDS011;38650;44.536;18.664;2024-02-28T08:29:53;11.32;;;10.23;;
52764;SDS011;38650;44.536;18.664;2024-02-28T08:32:19;11.35;;;10.25;;
52764;SDS011;38650;44.536;18.664;2024-02-28T08:34:45;14.27;;;12.63;;
52764;SDS011;38650;44.536;18.664;2024-02-28T08:37:11;13.15;;;11.85;;
52764;SDS011;38650;44.536;18.664;2024-02-28T08:39:42;12.68;;;11.57;;
52764;SDS011;38650;44.536;18.664;2024-02-28T08:42:07;13.10;;;11.93;;
52764;SDS011;38650;44.536;18.664;2024-02-28T08:44:33;14.27;;;12.90;;
52764;SDS011;38650;44.536;18.664;2024-02-28T08:46:59;12.82;;;11.73;;
52764;SDS011;38650;44.536;18.664;2024-02-28T08:49:24;13.27;;;12.13;;
52764;SDS011;38650;44.536;18.664;2024-02-28T08:51:53;13.85;;;12.65;;
52764;SDS011;38650;44.536;18.664;2024-02-28T08:54:19;15.63;;;14.23;;
52764;SDS011;38650;44.536;18.664;2024-02-28T08:56:47;13.85;;;12.55;;
52764;SDS011;38650;44.536;18.664;2024-02-28T08:59:23;13.15;;;11.98;;
52764;SDS011;38650;44.536;18.664;2024-02-28T09:01:51;12.18;;;10.98;;
52764;SDS011;38650;44.536;18.664;2024-02-28T09:04:17;12.77;;;11.60;;
52764;SDS011;38650;44.536;18.664;2024-02-28T09:06:42;12.75;;;11.65;;
52764;SDS011;38650;44.536;18.664;2024-02-28T09:09:08;13.07;;;11.88;;
52764;SDS011;38650;44.536;18.664;2024-02-28T09:11:35;12.23;;;11.13;;
52764;SDS011;38650;44.536;18.664;2024-02-28T09:14:00;10.18;;;9.38;;
52764;SDS011;38650;44.536;18.664;2024-02-28T09:16:26;11.00;;;10.00;;
52764;SDS011;38650;44.536;18.664;2024-02-28T09:18:52;9.68;;;8.73;;
52764;SDS011;38650;44.536;18.664;2024-02-28T09:21:17;10.13;;;9.32;;
52764;SDS011;38650;44.536;18.664;2024-02-28T09:23:43;9.35;;;8.55;;
52764;SDS011;38650;44.536;18.664;2024-02-28T09:26:09;9.27;;;8.35;;
52764;SDS011;38650;44.536;18.664;2024-02-28T09:28:35;10.40;;;9.50;;
52764;SDS011;38650;44.536;18.664;2024-02-28T09:31:01;10.55;;;9.35;;
52764;SDS011;38650;44.536;18.664;2024-02-28T09:33:27;9.88;;;8.77;;
52764;SDS011;38650;44.536;18.664;2024-02-28T09:35:52;8.95;;;8.15;;
52764;SDS011;38650;44.536;18.664;2024-02-28T09:38:18;8.23;;;7.43;;
52764;SDS011;38650;44.536;18.664;2024-02-28T09:40:47;8.13;;;7.32;;
52764;SDS011;38650;44.536;18.664;2024-02-28T09:43:29;10.13;;;7.05;;
52764;SDS011;38650;44.536;18.664;2024-02-28T09:46:36;8.35;;;7.63;;
52764;SDS011;38650;44.536;18.664;2024-02-28T09:49:06;6.88;;;6.32;;
52764;SDS011;38650;44.536;18.664;2024-02-28T09:51:34;6.50;;;5.90;;
52764;SDS011;38650;44.536;18.664;2024-02-28T09:54:15;6.38;;;5.75;;
52764;SDS011;38650;44.536;18.664;2024-02-28T09:56:42;5.65;;;4.97;;
52764;SDS011;38650;44.536;18.664;2024-02-28T09:59:11;5.10;;;4.60;;
52764;SDS011;38650;44.536;18.664;2024-02-28T10:01:42;5.22;;;4.72;;
52764;SDS011;38650;44.536;18.664;2024-02-28T10:04:13;4.72;;;4.10;;
52764;SDS011;38650;44.536;18.664;2024-02-28T10:06:39;7.25;;;4.57;;
52764;SDS011;38650;44.536;18.664;2024-02-28T10:09:06;5.50;;;3.88;;
52764;SDS011;38650;44.536;18.664;2024-02-28T10:11:32;4.07;;;3.45;;
52764;SDS011;38650;44.536;18.664;2024-02-28T10:14:00;5.15;;;3.13;;
52764;SDS011;38650;44.536;18.664;2024-02-28T10:16:27;5.00;;;2.80;;
52764;SDS011;38650;44.536;18.664;2024-02-28T10:18:54;4.18;;;3.10;;
52764;SDS011;38650;44.536;18.664;2024-02-28T10:21:23;3.45;;;2.78;;
52764;SDS011;38650;44.536;18.664;2024-02-28T10:23:54;3.60;;;2.58;;
52764;SDS011;38650;44.536;18.664;2024-02-28T10:26:28;4.07;;;2.40;;
52764;SDS011;38650;44.536;18.664;2024-02-28T10:29:04;2.70;;;2.10;;
52764;SDS011;38650;44.536;18.664;2024-02-28T10:31:32;4.72;;;2.13;;
52764;SDS011;38650;44.536;18.664;2024-02-28T10:33:58;5.57;;;2.30;;
52764;SDS011;38650;44.536;18.664;2024-02-28T10:36:27;2.45;;;1.50;;
52764;SDS011;38650;44.536;18.664;2024-02-28T10:38:57;3.00;;;1.50;;
52764;SDS011;38650;44.536;18.664;2024-02-28T10:41:32;3.15;;;2.00;;
52764;SDS011;38650;44.536;18.664;2024-02-28T10:47:55;5.93;;;1.80;;
52764;SDS011;38650;44.536;18.664;2024-02-28T10:50:43;2.50;;;1.48;;
52764;SDS011;38650;44.536;18.664;2024-02-28T10:53:16;2.17;;;1.45;;
52764;SDS011;38650;44.536;18.664;2024-02-28T10:55:49;3.35;;;1.58;;
52764;SDS011;38650;44.536;18.664;2024-02-28T10:58:15;3.47;;;1.40;;
52764;SDS011;38650;44.536;18.664;2024-02-28T11:00:47;3.08;;;1.33;;
52764;SDS011;38650;44.536;18.664;2024-02-28T11:03:15;2.53;;;1.45;;
52764;SDS011;38650;44.536;18.664;2024-02-28T11:05:43;5.38;;;1.60;;
52764;SDS011;38650;44.536;18.664;2024-02-28T11:08:19;3.63;;;1.30;;
52764;SDS011;38650;44.536;18.664;2024-02-28T11:10:47;1.85;;;1.30;;
52764;SDS011;38650;44.536;18.664;2024-02-28T11:13:23;1.95;;;1.10;;
52764;SDS011;38650;44.536;18.664;2024-02-28T11:15:50;2.28;;;1.40;;
52764;SDS011;38650;44.536;18.664;2024-02-28T11:18:16;1.55;;;1.15;;
52764;SDS011;38650;44.536;18.664;2024-02-28T11:20:42;1.30;;;1.00;;
52764;SDS011;38650;44.536;18.664;2024-02-28T11:23:11;2.28;;;1.27;;
52764;SDS011;38650;44.536;18.664;2024-02-28T11:25:37;1.20;;;1.10;;
52764;SDS011;38650;44.536;18.664;2024-02-28T11:28:03;1.73;;;1.20;;
52764;SDS011;38650;44.536;18.664;2024-02-28T11:30:30;3.63;;;1.35;;
52764;SDS011;38650;44.536;18.664;2024-02-28T11:32:56;4.20;;;1.35;;
52764;SDS011;38650;44.536;18.664;2024-02-28T11:35:24;2.45;;;1.45;;
52764;SDS011;38650;44.536;18.664;2024-02-28T11:37:52;2.03;;;1.30;;
52764;SDS011;38650;44.536;18.664;2024-02-28T11:40:21;2.92;;;1.50;;
52764;SDS011;38650;44.536;18.664;2024-02-28T11:42:51;2.65;;;1.30;;
52764;SDS011;38650;44.536;18.664;2024-02-28T11:45:17;2.30;;;1.17;;
52764;SDS011;38650;44.536;18.664;2024-02-28T11:47:43;2.10;;;1.20;;
52764;SDS011;38650;44.536;18.664;2024-02-28T11:50:09;2.15;;;1.00;;
52764;SDS011;38650;44.536;18.664;2024-02-28T11:52:35;2.13;;;1.15;;
52764;SDS011;38650;44.536;18.664;2024-02-28T11:55:01;2.33;;;1.20;;
52764;SDS011;38650;44.536;18.664;2024-02-28T11:57:27;6.70;;;1.70;;
52764;SDS011;38650;44.536;18.664;2024-02-28T11:59:54;3.08;;;1.10;;
52764;SDS011;38650;44.536;18.664;2024-02-28T12:02:22;4.75;;;1.70;;
52764;SDS011;38650;44.536;18.664;2024-02-28T12:04:59;4.55;;;1.52;;
52764;SDS011;38650;44.536;18.664;2024-02-28T12:07:26;2.75;;;1.75;;
52764;SDS011;38650;44.536;18.664;2024-02-28T12:09:54;4.32;;;1.55;;
52764;SDS011;38650;44.536;18.664;2024-02-28T12:12:21;2.05;;;1.20;;
52764;SDS011;38650;44.536;18.664;2024-02-28T12:14:47;1.50;;;1.40;;
52764;SDS011;38650;44.536;18.664;2024-02-28T12:17:15;2.30;;;1.48;;
52764;SDS011;38650;44.536;18.664;2024-02-28T12:19:41;1.67;;;1.30;;
52764;SDS011;38650;44.536;18.664;2024-02-28T12:22:14;2.97;;;1.48;;
52764;SDS011;38650;44.536;18.664;2024-02-28T12:24:40;5.30;;;1.70;;
52764;SDS011;38650;44.536;18.664;2024-02-28T12:27:06;3.45;;;1.50;;
52764;SDS011;38650;44.536;18.664;2024-02-28T12:29:31;2.03;;;1.45;;
52764;SDS011;38650;44.536;18.664;2024-02-28T12:31:58;1.85;;;1.23;;
52764;SDS011;38650;44.536;18.664;2024-02-28T12:34:25;1.85;;;1.48;;
52764;SDS011;38650;44.536;18.664;2024-02-28T12:36:51;2.83;;;2.00;;
52764;SDS011;38650;44.536;18.664;2024-02-28T12:39:17;2.42;;;1.70;;
52764;SDS011;38650;44.536;18.664;2024-02-28T12:41:43;3.08;;;1.67;;
52764;SDS011;38650;44.536;18.664;2024-02-28T12:44:08;2.47;;;1.80;;
52764;SDS011;38650;44.536;18.664;2024-02-28T12:46:35;5.50;;;2.33;;
52764;SDS011;38650;44.536;18.664;2024-02-28T12:49:02;3.30;;;2.00;;
52764;SDS011;38650;44.536;18.664;2024-02-28T12:51:46;3.28;;;2.30;;
52764;SDS011;38650;44.536;18.664;2024-02-28T12:54:13;4.13;;;2.40;;
52764;SDS011;38650;44.536;18.664;2024-02-28T12:56:40;3.47;;;2.45;;
52764;SDS011;38650;44.536;18.664;2024-02-28T12:59:08;3.33;;;2.40;;
52764;SDS011;38650;44.536;18.664;2024-02-28T13:01:34;4.50;;;2.70;;
52764;SDS011;38650;44.536;18.664;2024-02-28T13:04:00;3.35;;;2.33;;
52764;SDS011;38650;44.536;18.664;2024-02-28T13:06:26;3.08;;;2.50;;
52764;SDS011;38650;44.536;18.664;2024-02-28T13:08:52;3.13;;;2.55;;
52764;SDS011;38650;44.536;18.664;2024-02-28T13:11:18;4.40;;;2.90;;
52764;SDS011;38650;44.536;18.664;2024-02-28T13:13:48;3.15;;;2.67;;
52764;SDS011;38650;44.536;18.664;2024-02-28T13:16:14;3.08;;;2.75;;
52764;SDS011;38650;44.536;18.664;2024-02-28T13:18:44;4.20;;;2.47;;
52764;SDS011;38650;44.536;18.664;2024-02-28T13:21:10;3.38;;;2.75;;
52764;SDS011;38650;44.536;18.664;2024-02-28T13:23:36;2.70;;;2.50;;
52764;SDS011;38650;44.536;18.664;2024-02-28T13:26:05;4.93;;;2.63;;
52764;SDS011;38650;44.536;18.664;2024-02-28T13:28:32;3.40;;;2.72;;
52764;SDS011;38650;44.536;18.664;2024-02-28T13:30:58;3.25;;;2.65;;
52764;SDS011;38650;44.536;18.664;2024-02-28T13:33:25;5.13;;;2.95;;
52764;SDS011;38650;44.536;18.664;2024-02-28T13:35:51;2.72;;;2.47;;
52764;SDS011;38650;44.536;18.664;2024-02-28T13:38:18;3.33;;;2.60;;
52764;SDS011;38650;44.536;18.664;2024-02-28T13:40:48;4.43;;;3.15;;
52764;SDS011;38650;44.536;18.664;2024-02-28T13:43:14;2.88;;;2.40;;
52764;SDS011;38650;44.536;18.664;2024-02-28T13:45:45;6.30;;;3.13;;
52764;SDS011;38650;44.536;18.664;2024-02-28T13:48:16;3.75;;;2.58;;
52764;SDS011;38650;44.536;18.664;2024-02-28T13:50:53;4.18;;;2.63;;
52764;SDS011;38650;44.536;18.664;2024-02-28T13:53:19;4.03;;;3.03;;
52764;SDS011;38650;44.536;18.664;2024-02-28T13:55:45;3.40;;;3.10;;
52764;SDS011;38650;44.536;18.664;2024-02-28T13:58:11;4.45;;;3.17;;
52764;SDS011;38650;44.536;18.664;2024-02-28T14:00:38;3.92;;;3.15;;
52764;SDS011;38650;44.536;18.664;2024-02-28T14:03:04;3.92;;;3.47;;
52764;SDS011;38650;44.536;18.664;2024-02-28T14:05:34;3.30;;;3.00;;
52764;SDS011;38650;44.536;18.664;2024-02-28T14:07:59;6.13;;;4.13;;
52764;SDS011;38650;44.536;18.664;2024-02-28T14:10:26;4.72;;;3.88;;
52764;SDS011;38650;44.536;18.664;2024-02-28T14:12:51;3.97;;;3.60;;
52764;SDS011;38650;44.536;18.664;2024-02-28T14:15:20;3.83;;;3.25;;
52764;SDS011;38650;44.536;18.664;2024-02-28T14:17:47;3.35;;;3.05;;
52764;SDS011;38650;44.536;18.664;2024-02-28T14:20:13;3.63;;;3.03;;
52764;SDS011;38650;44.536;18.664;2024-02-28T14:22:39;3.20;;;2.90;;